sensor_id;sensor_type;location;lat;lon;timestamp;temperature;humidity
44277;DHT22;29973;43.742;1.236;2023-08-21T00:01:32;25.10;99.90
44277;DHT22;29973;43.742;1.236;2023-08-21T00:03:58;24.90;99.90
44277;DHT22;29973;43.742;1.236;2023-08-21T00:06:24;24.80;99.90
44277;DHT22;29973;43.742;1.236;2023-08-21T00:08:50;24.80;99.90
44277;DHT22;29973;43.742;1.236;2023-08-21T00:11:16;24.70;99.90
44277;DHT22;29973;43.742;1.236;2023-08-21T00:13:41;24.70;99.90
44277;DHT22;29973;43.742;1.236;2023-08-21T00:16:12;24.70;99.90
44277;DHT22;29973;43.742;1.236;2023-08-21T00:18:38;24.60;99.90
44277;DHT22;29973;43.742;1.236;2023-08-21T00:21:04;24.60;99.90
44277;DHT22;29973;43.742;1.236;2023-08-21T00:23:30;24.50;99.90
44277;DHT22;29973;43.742;1.236;2023-08-21T00:25:56;24.60;99.90
44277;DHT22;29973;43.742;1.236;2023-08-21T00:28:22;24.40;99.90
44277;DHT22;29973;43.742;1.236;2023-08-21T00:30:48;24.40;99.90
44277;DHT22;29973;43.742;1.236;2023-08-21T00:33:14;24.40;99.90
44277;DHT22;29973;43.742;1.236;2023-08-21T00:35:39;24.20;99.90
44277;DHT22;29973;43.742;1.236;2023-08-21T00:38:05;24.20;99.90
44277;DHT22;29973;43.742;1.236;2023-08-21T00:40:31;24.10;99.90
44277;DHT22;29973;43.742;1.236;2023-08-21T00:42:57;24.00;99.90
44277;DHT22;29973;43.742;1.236;2023-08-21T00:45:23;24.00;99.90
44277;DHT22;29973;43.742;1.236;2023-08-21T00:47:49;24.00;99.90
44277;DHT22;29973;43.742;1.236;2023-08-21T00:50:15;23.90;99.90
44277;DHT22;29973;43.742;1.236;2023-08-21T00:52:44;23.90;99.90
44277;DHT22;29973;43.742;1.236;2023-08-21T00:55:10;23.80;99.90
44277;DHT22;29973;43.742;1.236;2023-08-21T00:57:37;23.70;99.90
44277;DHT22;29973;43.742;1.236;2023-08-21T01:00:04;23.70;99.90
44277;DHT22;29973;43.742;1.236;2023-08-21T01:02:30;23.60;99.90
44277;DHT22;29973;43.742;1.236;2023-08-21T01:04:56;23.60;99.90
44277;DHT22;29973;43.742;1.236;2023-08-21T01:07:22;23.50;99.90
44277;DHT22;29973;43.742;1.236;2023-08-21T01:09:54;23.40;99.90
44277;DHT22;29973;43.742;1.236;2023-08-21T01:14:59;23.40;99.90
44277;DHT22;29973;43.742;1.236;2023-08-21T01:17:27;23.30;99.90
44277;DHT22;29973;43.742;1.236;2023-08-21T01:19:54;23.20;99.90
44277;DHT22;29973;43.742;1.236;2023-08-21T01:22:24;23.30;99.90
44277;DHT22;29973;43.742;1.236;2023-08-21T01:24:50;23.30;99.90
44277;DHT22;29973;43.742;1.236;2023-08-21T01:27:16;23.10;99.90
44277;DHT22;29973;43.742;1.236;2023-08-21T01:29:42;23.10;99.90
44277;DHT22;29973;43.742;1.236;2023-08-21T01:32:23;23.10;99.90
44277;DHT22;29973;43.742;1.236;2023-08-21T01:34:55;23.00;99.90
44277;DHT22;29973;43.742;1.236;2023-08-21T01:37:22;23.00;99.90
44277;DHT22;29973;43.742;1.236;2023-08-21T01:39:49;23.00;99.90
44277;DHT22;29973;43.742;1.236;2023-08-21T01:42:14;22.90;99.90
44277;DHT22;29973;43.742;1.236;2023-08-21T01:44:40;22.80;99.90
44277;DHT22;29973;43.742;1.236;2023-08-21T01:47:06;22.80;99.90
44277;DHT22;29973;43.742;1.236;2023-08-21T01:49:32;22.70;99.90
44277;DHT22;29973;43.742;1.236;2023-08-21T01:51:58;22.70;99.90
44277;DHT22;29973;43.742;1.236;2023-08-21T01:54:23;22.70;99.90
44277;DHT22;29973;43.742;1.236;2023-08-21T01:56:49;22.60;99.90
44277;DHT22;29973;43.742;1.236;2023-08-21T01:59:16;22.50;99.90
44277;DHT22;29973;43.742;1.236;2023-08-21T02:01:43;22.50;99.90
44277;DHT22;29973;43.742;1.236;2023-08-21T02:04:08;22.50;99.90
44277;DHT22;29973;43.742;1.236;2023-08-21T02:06:34;22.50;99.90
44277;DHT22;29973;43.742;1.236;2023-08-21T02:09:00;22.40;99.90
44277;DHT22;29973;43.742;1.236;2023-08-21T02:11:25;22.30;99.90
44277;DHT22;29973;43.742;1.236;2023-08-21T02:13:51;22.40;99.90
44277;DHT22;29973;43.742;1.236;2023-08-21T02:16:17;22.30;99.90
44277;DHT22;29973;43.742;1.236;2023-08-21T02:18:42;22.30;99.90
44277;DHT22;29973;43.742;1.236;2023-08-21T02:21:08;22.20;99.90
44277;DHT22;29973;43.742;1.236;2023-08-21T02:23:34;22.20;99.90
44277;DHT22;29973;43.742;1.236;2023-08-21T02:25:59;22.20;99.90
44277;DHT22;29973;43.742;1.236;2023-08-21T02:28:25;22.20;99.90
44277;DHT22;29973;43.742;1.236;2023-08-21T02:30:51;22.10;99.90
44277;DHT22;29973;43.742;1.236;2023-08-21T02:33:16;22.10;99.90
44277;DHT22;29973;43.742;1.236;2023-08-21T02:35:42;22.00;99.90
44277;DHT22;29973;43.742;1.236;2023-08-21T02:38:08;22.00;99.90
44277;DHT22;29973;43.742;1.236;2023-08-21T02:40:34;22.00;99.90
44277;DHT22;29973;43.742;1.236;2023-08-21T02:42:59;22.00;99.90
44277;DHT22;29973;43.742;1.236;2023-08-21T02:45:25;21.90;99.90
44277;DHT22;29973;43.742;1.236;2023-08-21T02:47:51;21.90;99.90
44277;DHT22;29973;43.742;1.236;2023-08-21T02:50:16;22.00;99.90
44277;DHT22;29973;43.742;1.236;2023-08-21T02:52:42;21.90;99.90
44277;DHT22;29973;43.742;1.236;2023-08-21T02:55:08;21.90;99.90
44277;DHT22;29973;43.742;1.236;2023-08-21T02:57:34;21.80;99.90
44277;DHT22;29973;43.742;1.236;2023-08-21T02:59:59;21.80;99.90
44277;DHT22;29973;43.742;1.236;2023-08-21T03:02:25;21.80;99.90
44277;DHT22;29973;43.742;1.236;2023-08-21T03:04:51;21.70;99.90
44277;DHT22;29973;43.742;1.236;2023-08-21T03:07:17;21.60;99.90
44277;DHT22;29973;43.742;1.236;2023-08-21T03:09:45;21.80;99.90
44277;DHT22;29973;43.742;1.236;2023-08-21T03:12:14;21.60;99.90
44277;DHT22;29973;43.742;1.236;2023-08-21T03:14:40;21.70;99.90
44277;DHT22;29973;43.742;1.236;2023-08-21T03:17:06;21.60;99.90
44277;DHT22;29973;43.742;1.236;2023-08-21T03:19:32;21.60;99.90
44277;DHT22;29973;43.742;1.236;2023-08-21T03:21:57;21.60;99.90
44277;DHT22;29973;43.742;1.236;2023-08-21T03:24:23;21.50;99.90
44277;DHT22;29973;43.742;1.236;2023-08-21T03:26:49;21.40;99.90
44277;DHT22;29973;43.742;1.236;2023-08-21T03:29:14;21.40;99.90
44277;DHT22;29973;43.742;1.236;2023-08-21T03:31:40;21.40;99.90
44277;DHT22;29973;43.742;1.236;2023-08-21T03:34:06;21.40;99.90
44277;DHT22;29973;43.742;1.236;2023-08-21T03:36:32;21.30;99.90
44277;DHT22;29973;43.742;1.236;2023-08-21T03:38:59;21.30;99.90
44277;DHT22;29973;43.742;1.236;2023-08-21T03:41:25;21.20;99.90
44277;DHT22;29973;43.742;1.236;2023-08-21T03:43:50;21.30;99.90
44277;DHT22;29973;43.742;1.236;2023-08-21T03:46:16;21.30;99.90
44277;DHT22;29973;43.742;1.236;2023-08-21T03:48:42;21.20;99.90
44277;DHT22;29973;43.742;1.236;2023-08-21T03:51:07;21.20;99.90
44277;DHT22;29973;43.742;1.236;2023-08-21T03:53:33;21.30;99.90
44277;DHT22;29973;43.742;1.236;2023-08-21T03:55:59;21.20;99.90
44277;DHT22;29973;43.742;1.236;2023-08-21T03:58:24;21.10;99.90
44277;DHT22;29973;43.742;1.236;2023-08-21T04:00:52;21.20;99.90
44277;DHT22;29973;43.742;1.236;2023-08-21T04:03:18;21.10;99.90
44277;DHT22;29973;43.742;1.236;2023-08-21T04:05:43;21.10;99.90
44277;DHT22;29973;43.742;1.236;2023-08-21T04:08:09;21.10;99.90
44277;DHT22;29973;43.742;1.236;2023-08-21T04:10:35;21.00;99.90
44277;DHT22;29973;43.742;1.236;2023-08-21T04:13:01;21.00;99.90
44277;DHT22;29973;43.742;1.236;2023-08-21T04:15:26;21.00;99.90
44277;DHT22;29973;43.742;1.236;2023-08-21T04:17:52;21.00;99.90
44277;DHT22;29973;43.742;1.236;2023-08-21T04:20:19;21.00;99.90
44277;DHT22;29973;43.742;1.236;2023-08-21T04:22:47;20.90;99.90
44277;DHT22;29973;43.742;1.236;2023-08-21T04:25:13;20.90;99.90
44277;DHT22;29973;43.742;1.236;2023-08-21T04:27:38;20.90;99.90
44277;DHT22;29973;43.742;1.236;2023-08-21T04:30:05;21.00;99.90
44277;DHT22;29973;43.742;1.236;2023-08-21T04:32:31;20.90;99.90
44277;DHT22;29973;43.742;1.236;2023-08-21T04:34:57;20.90;99.90
44277;DHT22;29973;43.742;1.236;2023-08-21T04:37:23;20.80;99.90
44277;DHT22;29973;43.742;1.236;2023-08-21T04:39:53;20.80;99.90
44277;DHT22;29973;43.742;1.236;2023-08-21T04:42:19;20.80;99.90
44277;DHT22;29973;43.742;1.236;2023-08-21T04:44:44;20.80;99.90
44277;DHT22;29973;43.742;1.236;2023-08-21T04:47:22;20.80;99.90
44277;DHT22;29973;43.742;1.236;2023-08-21T04:49:49;20.80;99.90
44277;DHT22;29973;43.742;1.236;2023-08-21T04:52:15;20.80;99.90
44277;DHT22;29973;43.742;1.236;2023-08-21T04:54:41;20.80;99.90
44277;DHT22;29973;43.742;1.236;2023-08-21T04:57:07;20.90;99.90
44277;DHT22;29973;43.742;1.236;2023-08-21T04:59:32;20.80;99.90
44277;DHT22;29973;43.742;1.236;2023-08-21T05:01:58;20.70;99.90
44277;DHT22;29973;43.742;1.236;2023-08-21T05:04:24;20.70;99.90
44277;DHT22;29973;43.742;1.236;2023-08-21T05:06:49;20.70;99.90
44277;DHT22;29973;43.742;1.236;2023-08-21T05:09:15;20.70;99.90
44277;DHT22;29973;43.742;1.236;2023-08-21T05:11:41;20.80;99.90
44277;DHT22;29973;43.742;1.236;2023-08-21T05:14:06;20.90;99.90
44277;DHT22;29973;43.742;1.236;2023-08-21T05:16:33;20.80;99.90
44277;DHT22;29973;43.742;1.236;2023-08-21T05:18:59;20.90;99.90
44277;DHT22;29973;43.742;1.236;2023-08-21T05:21:24;20.80;99.90
44277;DHT22;29973;43.742;1.236;2023-08-21T05:23:50;20.90;99.90
44277;DHT22;29973;43.742;1.236;2023-08-21T05:26:16;20.80;99.90
44277;DHT22;29973;43.742;1.236;2023-08-21T05:28:41;21.00;99.90
44277;DHT22;29973;43.742;1.236;2023-08-21T05:31:07;20.90;99.90
44277;DHT22;29973;43.742;1.236;2023-08-21T05:33:33;21.00;99.90
44277;DHT22;29973;43.742;1.236;2023-08-21T05:35:59;21.10;99.90
44277;DHT22;29973;43.742;1.236;2023-08-21T05:38:24;21.10;99.90
44277;DHT22;29973;43.742;1.236;2023-08-21T05:40:50;21.10;99.90
44277;DHT22;29973;43.742;1.236;2023-08-21T05:43:20;21.10;99.90
44277;DHT22;29973;43.742;1.236;2023-08-21T05:45:46;21.20;99.90
44277;DHT22;29973;43.742;1.236;2023-08-21T05:48:13;21.20;99.90
44277;DHT22;29973;43.742;1.236;2023-08-21T05:50:39;21.40;99.90
44277;DHT22;29973;43.742;1.236;2023-08-21T05:53:06;21.30;99.90
44277;DHT22;29973;43.742;1.236;2023-08-21T05:55:32;21.30;99.90
44277;DHT22;29973;43.742;1.236;2023-08-21T05:57:58;21.40;99.90
44277;DHT22;29973;43.742;1.236;2023-08-21T06:00:24;21.50;99.90
44277;DHT22;29973;43.742;1.236;2023-08-21T06:02:49;21.60;99.90
44277;DHT22;29973;43.742;1.236;2023-08-21T06:05:15;21.60;99.90
44277;DHT22;29973;43.742;1.236;2023-08-21T06:07:41;21.60;99.90
44277;DHT22;29973;43.742;1.236;2023-08-21T06:10:07;21.70;99.90
44277;DHT22;29973;43.742;1.236;2023-08-21T06:12:34;21.80;99.90
44277;DHT22;29973;43.742;1.236;2023-08-21T06:14:59;21.80;99.90
44277;DHT22;29973;43.742;1.236;2023-08-21T06:17:27;21.70;99.90
44277;DHT22;29973;43.742;1.236;2023-08-21T06:19:52;21.80;99.90
44277;DHT22;29973;43.742;1.236;2023-08-21T06:22:18;22.00;99.90
44277;DHT22;29973;43.742;1.236;2023-08-21T06:24:44;22.10;99.90
44277;DHT22;29973;43.742;1.236;2023-08-21T06:27:10;22.20;99.90
44277;DHT22;29973;43.742;1.236;2023-08-21T06:29:36;22.10;99.90
44277;DHT22;29973;43.742;1.236;2023-08-21T06:32:03;22.10;99.90
44277;DHT22;29973;43.742;1.236;2023-08-21T06:34:29;22.20;99.90
44277;DHT22;29973;43.742;1.236;2023-08-21T06:36:54;22.30;99.90
44277;DHT22;29973;43.742;1.236;2023-08-21T06:39:20;22.40;99.90
44277;DHT22;29973;43.742;1.236;2023-08-21T06:41:46;22.60;99.90
44277;DHT22;29973;43.742;1.236;2023-08-21T06:44:11;22.60;99.90
44277;DHT22;29973;43.742;1.236;2023-08-21T06:46:37;22.90;99.90
44277;DHT22;29973;43.742;1.236;2023-08-21T06:49:03;23.10;99.90
44277;DHT22;29973;43.742;1.236;2023-08-21T06:51:29;23.10;99.90
44277;DHT22;29973;43.742;1.236;2023-08-21T06:53:55;23.00;99.90
44277;DHT22;29973;43.742;1.236;2023-08-21T06:56:20;22.90;99.90
44277;DHT22;29973;43.742;1.236;2023-08-21T06:58:46;22.90;99.90
44277;DHT22;29973;43.742;1.236;2023-08-21T07:01:12;23.20;99.90
44277;DHT22;29973;43.742;1.236;2023-08-21T07:03:38;23.30;99.90
44277;DHT22;29973;43.742;1.236;2023-08-21T07:06:03;23.30;99.90
44277;DHT22;29973;43.742;1.236;2023-08-21T07:08:29;23.50;99.90
44277;DHT22;29973;43.742;1.236;2023-08-21T07:10:55;23.20;99.90
44277;DHT22;29973;43.742;1.236;2023-08-21T07:13:21;23.50;99.90
44277;DHT22;29973;43.742;1.236;2023-08-21T07:15:47;23.70;99.90
44277;DHT22;29973;43.742;1.236;2023-08-21T07:18:13;23.90;99.90
44277;DHT22;29973;43.742;1.236;2023-08-21T07:20:39;24.00;99.90
44277;DHT22;29973;43.742;1.236;2023-08-21T07:23:05;24.10;99.90
44277;DHT22;29973;43.742;1.236;2023-08-21T07:25:31;24.00;99.90
44277;DHT22;29973;43.742;1.236;2023-08-21T07:27:57;23.90;99.90
44277;DHT22;29973;43.742;1.236;2023-08-21T07:30:24;24.10;99.90
44277;DHT22;29973;43.742;1.236;2023-08-21T07:32:49;24.20;99.90
44277;DHT22;29973;43.742;1.236;2023-08-21T07:35:16;24.40;99.90
44277;DHT22;29973;43.742;1.236;2023-08-21T07:37:45;24.60;99.90
44277;DHT22;29973;43.742;1.236;2023-08-21T07:40:11;24.60;99.90
44277;DHT22;29973;43.742;1.236;2023-08-21T07:42:37;24.60;99.90
44277;DHT22;29973;43.742;1.236;2023-08-21T07:45:03;24.50;99.90
44277;DHT22;29973;43.742;1.236;2023-08-21T07:47:30;24.70;99.90
44277;DHT22;29973;43.742;1.236;2023-08-21T07:49:56;25.00;99.90
44277;DHT22;29973;43.742;1.236;2023-08-21T07:52:23;25.10;99.90
44277;DHT22;29973;43.742;1.236;2023-08-21T07:54:52;25.10;99.90
44277;DHT22;29973;43.742;1.236;2023-08-21T07:57:18;25.30;99.90
44277;DHT22;29973;43.742;1.236;2023-08-21T07:59:44;25.10;99.90
44277;DHT22;29973;43.742;1.236;2023-08-21T08:02:10;25.10;99.90
44277;DHT22;29973;43.742;1.236;2023-08-21T08:04:39;25.20;99.90
44277;DHT22;29973;43.742;1.236;2023-08-21T08:07:05;25.20;99.90
44277;DHT22;29973;43.742;1.236;2023-08-21T08:09:31;25.40;99.90
44277;DHT22;29973;43.742;1.236;2023-08-21T08:11:57;25.60;99.90
44277;DHT22;29973;43.742;1.236;2023-08-21T08:14:22;25.70;99.90
44277;DHT22;29973;43.742;1.236;2023-08-21T08:16:48;25.80;99.90
44277;DHT22;29973;43.742;1.236;2023-08-21T08:19:14;26.00;99.90
44277;DHT22;29973;43.742;1.236;2023-08-21T08:21:39;26.20;99.90
44277;DHT22;29973;43.742;1.236;2023-08-21T08:24:05;26.10;99.90
44277;DHT22;29973;43.742;1.236;2023-08-21T08:26:31;26.40;99.90
44277;DHT22;29973;43.742;1.236;2023-08-21T08:28:57;26.50;99.90
44277;DHT22;29973;43.742;1.236;2023-08-21T08:31:23;26.40;99.90
44277;DHT22;29973;43.742;1.236;2023-08-21T08:33:51;26.20;99.90
44277;DHT22;29973;43.742;1.236;2023-08-21T08:36:17;26.60;99.90
44277;DHT22;29973;43.742;1.236;2023-08-21T08:38:43;27.00;99.90
44277;DHT22;29973;43.742;1.236;2023-08-21T08:44:01;27.00;99.90
44277;DHT22;29973;43.742;1.236;2023-08-21T08:46:29;27.10;99.90
44277;DHT22;29973;43.742;1.236;2023-08-21T08:48:55;27.10;99.90
44277;DHT22;29973;43.742;1.236;2023-08-21T08:51:28;26.90;99.90
44277;DHT22;29973;43.742;1.236;2023-08-21T08:53:56;27.30;99.90
44277;DHT22;29973;43.742;1.236;2023-08-21T08:56:24;27.50;99.90
44277;DHT22;29973;43.742;1.236;2023-08-21T08:58:50;27.80;99.90
44277;DHT22;29973;43.742;1.236;2023-08-21T09:01:16;27.90;99.90
44277;DHT22;29973;43.742;1.236;2023-08-21T09:03:43;27.90;99.90
44277;DHT22;29973;43.742;1.236;2023-08-21T09:06:15;27.70;99.90
44277;DHT22;29973;43.742;1.236;2023-08-21T09:08:55;27.50;99.90
44277;DHT22;29973;43.742;1.236;2023-08-21T09:11:21;27.70;99.90
44277;DHT22;29973;43.742;1.236;2023-08-21T09:13:52;27.90;99.90
44277;DHT22;29973;43.742;1.236;2023-08-21T09:16:57;28.00;99.90
44277;DHT22;29973;43.742;1.236;2023-08-21T09:19:29;28.00;99.90
44277;DHT22;29973;43.742;1.236;2023-08-21T09:22:16;28.00;99.90
44277;DHT22;29973;43.742;1.236;2023-08-21T09:25:03;28.50;99.90
44277;DHT22;29973;43.742;1.236;2023-08-21T09:27:38;28.20;99.90
44277;DHT22;29973;43.742;1.236;2023-08-21T09:30:14;28.60;99.90
44277;DHT22;29973;43.742;1.236;2023-08-21T09:32:54;28.40;99.90
44277;DHT22;29973;43.742;1.236;2023-08-21T09:35:26;28.50;99.90
44277;DHT22;29973;43.742;1.236;2023-08-21T09:37:55;28.70;99.90
44277;DHT22;29973;43.742;1.236;2023-08-21T09:40:21;28.90;99.90
44277;DHT22;29973;43.742;1.236;2023-08-21T09:42:52;29.50;99.90
44277;DHT22;29973;43.742;1.236;2023-08-21T09:45:23;29.00;99.90
44277;DHT22;29973;43.742;1.236;2023-08-21T09:47:50;29.60;99.90
44277;DHT22;29973;43.742;1.236;2023-08-21T09:50:17;29.30;99.90
44277;DHT22;29973;43.742;1.236;2023-08-21T09:52:45;29.40;99.90
44277;DHT22;29973;43.742;1.236;2023-08-21T09:55:13;29.40;99.90
44277;DHT22;29973;43.742;1.236;2023-08-21T09:57:39;29.60;99.90
44277;DHT22;29973;43.742;1.236;2023-08-21T10:00:07;30.30;99.90
44277;DHT22;29973;43.742;1.236;2023-08-21T10:02:51;30.70;99.90
44277;DHT22;29973;43.742;1.236;2023-08-21T10:05:17;30.70;99.90
44277;DHT22;29973;43.742;1.236;2023-08-21T10:07:49;30.60;99.90
44277;DHT22;29973;43.742;1.236;2023-08-21T10:10:16;30.90;99.90
44277;DHT22;29973;43.742;1.236;2023-08-21T10:12:42;31.00;99.90
44277;DHT22;29973;43.742;1.236;2023-08-21T10:15:08;31.20;99.90
44277;DHT22;29973;43.742;1.236;2023-08-21T10:17:38;31.40;99.90
44277;DHT22;29973;43.742;1.236;2023-08-21T10:20:07;31.70;99.90
44277;DHT22;29973;43.742;1.236;2023-08-21T10:22:45;31.20;99.90
44277;DHT22;29973;43.742;1.236;2023-08-21T10:25:21;31.40;99.90
44277;DHT22;29973;43.742;1.236;2023-08-21T10:27:58;31.80;99.90
44277;DHT22;29973;43.742;1.236;2023-08-21T10:30:26;31.20;99.90
44277;DHT22;29973;43.742;1.236;2023-08-21T10:32:54;31.70;99.90
44277;DHT22;29973;43.742;1.236;2023-08-21T10:35:22;31.90;99.90
44277;DHT22;29973;43.742;1.236;2023-08-21T10:38:11;32.20;99.90
44277;DHT22;29973;43.742;1.236;2023-08-21T10:40:39;32.40;99.90
44277;DHT22;29973;43.742;1.236;2023-08-21T10:46:03;31.90;99.90
44277;DHT22;29973;43.742;1.236;2023-08-21T10:48:29;32.10;99.90
44277;DHT22;29973;43.742;1.236;2023-08-21T10:50:55;31.70;99.90
44277;DHT22;29973;43.742;1.236;2023-08-21T10:53:23;31.70;99.90
44277;DHT22;29973;43.742;1.236;2023-08-21T10:55:55;31.90;99.90
44277;DHT22;29973;43.742;1.236;2023-08-21T10:58:21;32.50;99.90
44277;DHT22;29973;43.742;1.236;2023-08-21T11:00:47;32.50;99.90
44277;DHT22;29973;43.742;1.236;2023-08-21T11:03:21;32.90;99.90
44277;DHT22;29973;43.742;1.236;2023-08-21T11:06:03;33.60;99.90
44277;DHT22;29973;43.742;1.236;2023-08-21T11:08:29;34.80;99.90
44277;DHT22;29973;43.742;1.236;2023-08-21T11:10:56;36.40;99.90
44277;DHT22;29973;43.742;1.236;2023-08-21T11:13:25;36.80;99.90
44277;DHT22;29973;43.742;1.236;2023-08-21T11:16:05;36.10;99.90
44277;DHT22;29973;43.742;1.236;2023-08-21T11:18:38;36.00;99.90
44277;DHT22;29973;43.742;1.236;2023-08-21T11:21:05;37.30;99.90
44277;DHT22;29973;43.742;1.236;2023-08-21T11:23:36;37.10;99.90
44277;DHT22;29973;43.742;1.236;2023-08-21T11:26:03;38.20;99.90
44277;DHT22;29973;43.742;1.236;2023-08-21T11:28:30;38.30;99.90
44277;DHT22;29973;43.742;1.236;2023-08-21T11:30:57;38.80;99.90
44277;DHT22;29973;43.742;1.236;2023-08-21T11:33:22;39.70;99.90
44277;DHT22;29973;43.742;1.236;2023-08-21T11:35:49;38.50;99.90
44277;DHT22;29973;43.742;1.236;2023-08-21T11:38:22;39.80;99.90
44277;DHT22;29973;43.742;1.236;2023-08-21T11:43:20;40.60;97.20
44277;DHT22;29973;43.742;1.236;2023-08-21T11:45:46;41.30;91.90
44277;DHT22;29973;43.742;1.236;2023-08-21T11:48:12;40.70;93.30
44277;DHT22;29973;43.742;1.236;2023-08-21T11:50:39;40.60;92.00
44277;DHT22;29973;43.742;1.236;2023-08-21T11:53:05;40.70;93.90
44277;DHT22;29973;43.742;1.236;2023-08-21T11:55:31;41.10;87.40
44277;DHT22;29973;43.742;1.236;2023-08-21T11:57:57;41.80;86.30
44277;DHT22;29973;43.742;1.236;2023-08-21T12:00:28;41.30;85.70
44277;DHT22;29973;43.742;1.236;2023-08-21T12:03:01;40.40;88.50
44277;DHT22;29973;43.742;1.236;2023-08-21T12:05:29;40.00;89.20
44277;DHT22;29973;43.742;1.236;2023-08-21T12:07:55;39.30;90.30
44277;DHT22;29973;43.742;1.236;2023-08-21T12:10:28;39.80;87.80
44277;DHT22;29973;43.742;1.236;2023-08-21T12:12:55;39.80;90.20
44277;DHT22;29973;43.742;1.236;2023-08-21T12:15:22;41.20;84.40
44277;DHT22;29973;43.742;1.236;2023-08-21T12:17:48;41.10;81.40
44277;DHT22;29973;43.742;1.236;2023-08-21T12:20:13;41.10;83.90
44277;DHT22;29973;43.742;1.236;2023-08-21T12:22:40;42.50;79.60
44277;DHT22;29973;43.742;1.236;2023-08-21T12:25:06;44.10;75.20
44277;DHT22;29973;43.742;1.236;2023-08-21T12:27:32;42.90;74.70
44277;DHT22;29973;43.742;1.236;2023-08-21T12:29:58;44.20;73.40
44277;DHT22;29973;43.742;1.236;2023-08-21T12:32:24;43.60;70.40
44277;DHT22;29973;43.742;1.236;2023-08-21T12:34:50;43.10;68.90
44277;DHT22;29973;43.742;1.236;2023-08-21T12:37:15;43.70;67.40
44277;DHT22;29973;43.742;1.236;2023-08-21T12:39:42;44.80;66.70
44277;DHT22;29973;43.742;1.236;2023-08-21T12:42:07;42.50;72.30
44277;DHT22;29973;43.742;1.236;2023-08-21T12:44:34;42.70;71.80
44277;DHT22;29973;43.742;1.236;2023-08-21T12:46:59;44.10;64.70
44277;DHT22;29973;43.742;1.236;2023-08-21T12:49:25;43.90;67.30
44277;DHT22;29973;43.742;1.236;2023-08-21T12:51:51;44.40;64.00
44277;DHT22;29973;43.742;1.236;2023-08-21T12:54:17;40.80;67.90
44277;DHT22;29973;43.742;1.236;2023-08-21T12:56:42;41.60;67.00
44277;DHT22;29973;43.742;1.236;2023-08-21T12:59:08;43.50;65.80
44277;DHT22;29973;43.742;1.236;2023-08-21T13:01:34;44.80;61.20
44277;DHT22;29973;43.742;1.236;2023-08-21T13:04:01;44.20;61.20
44277;DHT22;29973;43.742;1.236;2023-08-21T13:06:28;44.60;64.30
44277;DHT22;29973;43.742;1.236;2023-08-21T13:08:54;44.40;62.30
44277;DHT22;29973;43.742;1.236;2023-08-21T13:11:19;43.80;60.50
44277;DHT22;29973;43.742;1.236;2023-08-21T13:13:45;44.20;62.90
44277;DHT22;29973;43.742;1.236;2023-08-21T13:16:11;45.40;58.20
44277;DHT22;29973;43.742;1.236;2023-08-21T13:18:37;47.00;56.70
44277;DHT22;29973;43.742;1.236;2023-08-21T13:21:03;46.20;56.70
44277;DHT22;29973;43.742;1.236;2023-08-21T13:23:29;44.60;58.60
44277;DHT22;29973;43.742;1.236;2023-08-21T13:25:56;43.00;63.10
44277;DHT22;29973;43.742;1.236;2023-08-21T13:28:23;44.20;61.90
44277;DHT22;29973;43.742;1.236;2023-08-21T13:30:49;44.80;58.60
44277;DHT22;29973;43.742;1.236;2023-08-21T13:33:15;45.20;57.70
44277;DHT22;29973;43.742;1.236;2023-08-21T13:35:46;43.70;59.00
44277;DHT22;29973;43.742;1.236;2023-08-21T13:38:15;45.00;55.60
44277;DHT22;29973;43.742;1.236;2023-08-21T13:40:41;44.20;58.50
44277;DHT22;29973;43.742;1.236;2023-08-21T13:43:07;43.40;59.80
44277;DHT22;29973;43.742;1.236;2023-08-21T13:45:35;44.60;56.30
44277;DHT22;29973;43.742;1.236;2023-08-21T13:48:01;44.70;55.90
44277;DHT22;29973;43.742;1.236;2023-08-21T13:50:26;46.20;52.60
44277;DHT22;29973;43.742;1.236;2023-08-21T13:52:52;45.40;53.90
44277;DHT22;29973;43.742;1.236;2023-08-21T13:55:18;44.70;55.40
44277;DHT22;29973;43.742;1.236;2023-08-21T13:57:44;46.20;52.90
44277;DHT22;29973;43.742;1.236;2023-08-21T14:00:11;46.90;50.80
44277;DHT22;29973;43.742;1.236;2023-08-21T14:02:40;45.70;50.90
44277;DHT22;29973;43.742;1.236;2023-08-21T14:05:07;45.30;52.70
44277;DHT22;29973;43.742;1.236;2023-08-21T14:07:34;46.10;52.20
44277;DHT22;29973;43.742;1.236;2023-08-21T14:10:00;45.30;50.80
44277;DHT22;29973;43.742;1.236;2023-08-21T14:12:29;46.70;47.70
44277;DHT22;29973;43.742;1.236;2023-08-21T14:14:55;45.50;48.10
44277;DHT22;29973;43.742;1.236;2023-08-21T14:17:20;47.70;48.50
44277;DHT22;29973;43.742;1.236;2023-08-21T14:19:46;46.90;46.50
44277;DHT22;29973;43.742;1.236;2023-08-21T14:22:12;47.80;45.60
44277;DHT22;29973;43.742;1.236;2023-08-21T14:24:38;46.20;47.50
44277;DHT22;29973;43.742;1.236;2023-08-21T14:27:04;45.80;48.50
44277;DHT22;29973;43.742;1.236;2023-08-21T14:29:29;46.00;47.00
44277;DHT22;29973;43.742;1.236;2023-08-21T14:31:55;46.70;46.90
44277;DHT22;29973;43.742;1.236;2023-08-21T14:34:22;48.30;44.80
44277;DHT22;29973;43.742;1.236;2023-08-21T14:36:48;48.90;42.50
44277;DHT22;29973;43.742;1.236;2023-08-21T14:39:14;49.30;43.00
44277;DHT22;29973;43.742;1.236;2023-08-21T14:41:43;49.20;42.80
44277;DHT22;29973;43.742;1.236;2023-08-21T14:44:09;49.30;40.30
44277;DHT22;29973;43.742;1.236;2023-08-21T14:46:36;47.60;43.10
44277;DHT22;29973;43.742;1.236;2023-08-21T14:49:02;45.90;44.30
44277;DHT22;29973;43.742;1.236;2023-08-21T14:51:28;45.60;45.10
44277;DHT22;29973;43.742;1.236;2023-08-21T14:53:54;43.60;46.70
44277;DHT22;29973;43.742;1.236;2023-08-21T14:56:20;45.00;48.40
44277;DHT22;29973;43.742;1.236;2023-08-21T14:58:46;46.30;45.40
44277;DHT22;29973;43.742;1.236;2023-08-21T15:01:12;46.50;43.90
44277;DHT22;29973;43.742;1.236;2023-08-21T15:03:38;47.50;42.90
44277;DHT22;29973;43.742;1.236;2023-08-21T15:06:04;47.30;43.40
44277;DHT22;29973;43.742;1.236;2023-08-21T15:08:30;46.60;43.90
44277;DHT22;29973;43.742;1.236;2023-08-21T15:10:55;46.80;43.30
44277;DHT22;29973;43.742;1.236;2023-08-21T15:13:21;46.90;44.10
44277;DHT22;29973;43.742;1.236;2023-08-21T15:15:47;48.20;40.90
44277;DHT22;29973;43.742;1.236;2023-08-21T15:18:13;49.10;41.20
44277;DHT22;29973;43.742;1.236;2023-08-21T15:20:38;50.10;39.60
44277;DHT22;29973;43.742;1.236;2023-08-21T15:23:04;48.90;40.30
44277;DHT22;29973;43.742;1.236;2023-08-21T15:25:30;48.80;39.70
44277;DHT22;29973;43.742;1.236;2023-08-21T15:27:55;48.00;40.60
44277;DHT22;29973;43.742;1.236;2023-08-21T15:30:21;49.20;39.00
44277;DHT22;29973;43.742;1.236;2023-08-21T15:32:47;50.10;36.30
44277;DHT22;29973;43.742;1.236;2023-08-21T15:35:14;49.40;36.60
44277;DHT22;29973;43.742;1.236;2023-08-21T15:37:40;49.70;37.40
44277;DHT22;29973;43.742;1.236;2023-08-21T15:40:06;50.50;37.40